Observations for LONDON HEATHROW, United Kingdom (EGLL)

EGLL 191950Z AUTO 25007KT 9999 NCD 11/08 Q1004 NOSIG
EGLL 191920Z AUTO 25008KT 9999 FEW040 11/08 Q1004 NOSIG 
EGLL 191850Z AUTO 24007KT 9999 BKN039 11/08 Q1003 NOSIG 
EGLL 191820Z AUTO 24008KT 9999 NCD 11/08 Q1003 NOSIG
EGLL 191750Z AUTO 25008KT 9999 NCD 12/08 Q1003 NOSIG
EGLL 191720Z AUTO 25009KT 9999 NCD 13/07 Q1002 NOSIG
EGLL 191650Z AUTO 24009KT 200V260 9999 NCD 13/07 Q1002 NOSIG
EGLL 191620Z AUTO 24009KT 210V270 9999 NCD 14/07 Q1002 NOSIG
EGLL 191550Z AUTO 24011KT 9999 NCD 14/07 Q1002 NOSIG
EGLL 191520Z AUTO 24012KT 9999 NCD 14/07 Q1001 NOSIG
EGLL 191450Z AUTO 25012KT 9999 NCD 14/08 Q1001 NOSIG
EGLL 191420Z AUTO 25012KT 9999 NCD 14/08 Q1001 NOSIG
EGLL 191350Z AUTO 24011KT 9999 -RA SCT036 BKN049 13/08 Q1001 NOSIG  
EGLL 191320Z AUTO 28009KT 9999 -RA BKN034 14/09 Q1001 NOSIG 
EGLL 191250Z AUTO 24011KT 210V270 9999 FEW036 15/07 Q1000 TEMPO SHRA
EGLL 191220Z AUTO 24012KT 9999 FEW037 14/08 Q1000 NOSIG 
EGLL 191150Z AUTO 23012KT 9999 SCT033 14/08 Q1000 NOSIG 
EGLL 191120Z AUTO 24012KT 9999 FEW029 13/08 Q1000 NOSIG 
EGLL 191050Z AUTO 26011KT 9999 BKN025 14/09 Q1000 NOSIG 
EGLL 191020Z AUTO 24010KT 9999 SCT020 13/09 Q1000 NOSIG 
EGLL 190950Z AUTO 23010KT 9999 NCD 13/09 Q1000 NOSIG
EGLL 190920Z AUTO 22010KT 9999 NCD 12/09 Q1000 NOSIG
EGLL 190850Z AUTO 23011KT 9999 NCD 11/09 Q1000 NOSIG
EGLL 190820Z AUTO 22011KT 9999 NCD 11/09 Q0999 NOSIG
EGLL 190750Z AUTO 22008KT 9999 NCD 10/09 Q0999 NOSIG
EGLL 190720Z AUTO 22009KT 9999 NCD 09/09 Q0999 NOSIG
EGLL 190650Z AUTO 22008KT 9999 NCD 09/09 Q0999 NOSIG
EGLL 190620Z AUTO 21008G18KT 190V260 9999 NCD 10/09 Q0998 NOSIG 
EGLL 190550Z AUTO 20009KT 180V250 9999 NCD 10/09 Q0999 NOSIG
EGLL 190520Z AUTO 20008KT 170V250 9999 NCD 10/09 Q0998 NOSIG
EGLL 190450Z AUTO 19007KT 160V220 9999 NCD 10/09 Q0998 NOSIG
EGLL 190420Z AUTO VRB06KT 9999 NCD 10/09 Q0998 NOSIG
EGLL 190350Z AUTO 18006KT 9999 NCD 10/09 Q0998 NOSIG
EGLL 190320Z AUTO 20006KT 9999 NCD 10/09 Q0998 NOSIG
EGLL 190250Z AUTO 19007KT 9999 SCT046 10/09 Q0998 NOSIG 
EGLL 190220Z AUTO 18006KT 9999 FEW048 10/09 Q0999 NOSIG 
EGLL 190150Z AUTO 18006KT 9999 NCD 10/09 Q0999 NOSIG
EGLL 190120Z AUTO 19007KT 9999 NCD 10/09 Q0999 NOSIG
EGLL 190050Z AUTO 21007KT 9999 NCD 10/09 Q0999 NOSIG
EGLL 190020Z AUTO 20009KT 9999 NCD 10/09 Q0999 NOSIG
EGLL 182350Z AUTO 20008KT 9999 NCD 11/09 Q0999 NOSIG
EGLL 182320Z AUTO 20010KT 9999 //////TCU 11/10 Q0999 NOSIG  
EGLL 182250Z AUTO 21005KT 9999 //////CB 11/10 Q0999 NOSIG   
EGLL 182220Z AUTO 20008KT 180V250 9999 //////TCU 11/10 Q0999 NOSIG  
EGLL 182150Z 19008KT 150V260 9999 FEW028 11/09 Q0999 TEMPO SHRA 
EGLL 182120Z AUTO 20010KT 180V240 9999 //////TCU 11/09 Q0999 NOSIG  
EGLL 182050Z AUTO 21011KT 190V260 9999 -RA FEW026/// //////CB 12/10 Q0999 NOSIG 
EGLL 182020Z AUTO 20011KT 170V250 9999 NCD 12/09 Q1000  
EGLL 181950Z AUTO 20010KT 180V240 9999 //////TCU 11/09 Q1000 NOSIG  
EGLL 181920Z AUTO 21012KT 180V250 9999 FEW034/// //////TCU 11/09 Q1000 NOSIG